sensor_id;sensor_type;location;lat;lon;timestamp;P1;durP1;ratioP1;P2;durP2;ratioP2
3343;SDS011;1685;53.104;8.228;2024-02-15T00:01:10;32.57;;;16.77;;
3343;SDS011;1685;53.104;8.228;2024-02-15T00:03:37;38.20;;;17.40;;
3343;SDS011;1685;53.104;8.228;2024-02-15T00:06:05;31.70;;;18.20;;
3343;SDS011;1685;53.104;8.228;2024-02-15T00:08:32;33.27;;;17.23;;
3343;SDS011;1685;53.104;8.228;2024-02-15T00:11:01;37.70;;;16.50;;
3343;SDS011;1685;53.104;8.228;2024-02-15T00:13:28;31.70;;;16.13;;
3343;SDS011;1685;53.104;8.228;2024-02-15T00:15:58;29.53;;;16.03;;
3343;SDS011;1685;53.104;8.228;2024-02-15T00:18:26;34.10;;;16.83;;
3343;SDS011;1685;53.104;8.228;2024-02-15T00:20:53;38.87;;;17.80;;
3343;SDS011;1685;53.104;8.228;2024-02-15T00:23:20;35.33;;;16.23;;
3343;SDS011;1685;53.104;8.228;2024-02-15T00:25:47;32.33;;;16.00;;
3343;SDS011;1685;53.104;8.228;2024-02-15T00:28:16;32.70;;;16.30;;
3343;SDS011;1685;53.104;8.228;2024-02-15T00:30:43;35.70;;;17.93;;
3343;SDS011;1685;53.104;8.228;2024-02-15T00:33:10;32.40;;;15.23;;
3343;SDS011;1685;53.104;8.228;2024-02-15T00:35:38;35.00;;;16.20;;
3343;SDS011;1685;53.104;8.228;2024-02-15T00:38:04;32.43;;;16.60;;
3343;SDS011;1685;53.104;8.228;2024-02-15T00:40:32;36.67;;;16.60;;
3343;SDS011;1685;53.104;8.228;2024-02-15T00:42:59;28.50;;;14.90;;
3343;SDS011;1685;53.104;8.228;2024-02-15T00:45:28;31.40;;;15.70;;
3343;SDS011;1685;53.104;8.228;2024-02-15T00:47:55;38.27;;;16.53;;
3343;SDS011;1685;53.104;8.228;2024-02-15T00:50:23;43.00;;;17.50;;
3343;SDS011;1685;53.104;8.228;2024-02-15T00:52:50;35.63;;;16.87;;
3343;SDS011;1685;53.104;8.228;2024-02-15T00:55:17;32.40;;;15.90;;
3343;SDS011;1685;53.104;8.228;2024-02-15T00:57:45;41.23;;;16.10;;
3343;SDS011;1685;53.104;8.228;2024-02-15T01:00:12;43.10;;;17.13;;
3343;SDS011;1685;53.104;8.228;2024-02-15T01:02:41;35.23;;;14.57;;
3343;SDS011;1685;53.104;8.228;2024-02-15T01:05:08;34.27;;;16.50;;
3343;SDS011;1685;53.104;8.228;2024-02-15T01:07:36;33.60;;;15.70;;
3343;SDS011;1685;53.104;8.228;2024-02-15T01:10:04;37.07;;;16.73;;
3343;SDS011;1685;53.104;8.228;2024-02-15T01:12:32;36.93;;;15.87;;
3343;SDS011;1685;53.104;8.228;2024-02-15T01:14:59;38.70;;;16.63;;
3343;SDS011;1685;53.104;8.228;2024-02-15T01:17:26;35.90;;;15.17;;
3343;SDS011;1685;53.104;8.228;2024-02-15T01:19:54;35.60;;;17.80;;
3343;SDS011;1685;53.104;8.228;2024-02-15T01:22:22;36.80;;;16.60;;
3343;SDS011;1685;53.104;8.228;2024-02-15T01:24:50;38.50;;;16.70;;
3343;SDS011;1685;53.104;8.228;2024-02-15T01:27:17;35.77;;;16.70;;
3343;SDS011;1685;53.104;8.228;2024-02-15T01:29:44;36.43;;;16.67;;
3343;SDS011;1685;53.104;8.228;2024-02-15T01:32:11;41.00;;;16.80;;
3343;SDS011;1685;53.104;8.228;2024-02-15T01:34:39;38.10;;;16.97;;
3343;SDS011;1685;53.104;8.228;2024-02-15T01:37:08;36.43;;;16.13;;
3343;SDS011;1685;53.104;8.228;2024-02-15T01:39:35;35.60;;;15.80;;
3343;SDS011;1685;53.104;8.228;2024-02-15T01:42:03;34.20;;;15.37;;
3343;SDS011;1685;53.104;8.228;2024-02-15T01:44:30;35.90;;;15.50;;
3343;SDS011;1685;53.104;8.228;2024-02-15T01:46:57;35.03;;;15.00;;
3343;SDS011;1685;53.104;8.228;2024-02-15T01:49:24;28.27;;;13.30;;
3343;SDS011;1685;53.104;8.228;2024-02-15T01:51:52;38.33;;;14.87;;
3343;SDS011;1685;53.104;8.228;2024-02-15T01:54:23;44.47;;;15.70;;
3343;SDS011;1685;53.104;8.228;2024-02-15T01:56:50;41.53;;;16.53;;
3343;SDS011;1685;53.104;8.228;2024-02-15T01:59:18;40.60;;;15.80;;
3343;SDS011;1685;53.104;8.228;2024-02-15T02:01:46;40.90;;;15.93;;
3343;SDS011;1685;53.104;8.228;2024-02-15T02:04:13;39.10;;;16.93;;
3343;SDS011;1685;53.104;8.228;2024-02-15T02:06:40;47.50;;;16.40;;
3343;SDS011;1685;53.104;8.228;2024-02-15T02:09:09;48.47;;;18.00;;
3343;SDS011;1685;53.104;8.228;2024-02-15T02:11:40;44.50;;;17.77;;
3343;SDS011;1685;53.104;8.228;2024-02-15T02:14:07;45.63;;;18.37;;
3343;SDS011;1685;53.104;8.228;2024-02-15T02:16:36;41.27;;;17.87;;
3343;SDS011;1685;53.104;8.228;2024-02-15T02:19:04;41.70;;;17.37;;
3343;SDS011;1685;53.104;8.228;2024-02-15T02:21:34;41.47;;;17.63;;
3343;SDS011;1685;53.104;8.228;2024-02-15T02:24:02;41.60;;;18.90;;
3343;SDS011;1685;53.104;8.228;2024-02-15T02:26:33;50.60;;;18.70;;
3343;SDS011;1685;53.104;8.228;2024-02-15T02:29:00;47.87;;;19.27;;
3343;SDS011;1685;53.104;8.228;2024-02-15T02:31:32;49.70;;;19.97;;
3343;SDS011;1685;53.104;8.228;2024-02-15T02:33:59;41.57;;;20.07;;
3343;SDS011;1685;53.104;8.228;2024-02-15T02:36:26;56.57;;;20.10;;
3343;SDS011;1685;53.104;8.228;2024-02-15T02:38:54;62.73;;;20.47;;
3343;SDS011;1685;53.104;8.228;2024-02-15T02:41:25;41.50;;;17.67;;
3343;SDS011;1685;53.104;8.228;2024-02-15T02:43:54;48.03;;;18.93;;
3343;SDS011;1685;53.104;8.228;2024-02-15T02:46:22;43.37;;;17.33;;
3343;SDS011;1685;53.104;8.228;2024-02-15T02:48:49;47.03;;;16.63;;
3343;SDS011;1685;53.104;8.228;2024-02-15T02:51:16;42.80;;;18.40;;
3343;SDS011;1685;53.104;8.228;2024-02-15T02:53:44;40.47;;;18.73;;
3343;SDS011;1685;53.104;8.228;2024-02-15T02:56:11;41.37;;;17.43;;
3343;SDS011;1685;53.104;8.228;2024-02-15T02:58:39;44.53;;;17.73;;
3343;SDS011;1685;53.104;8.228;2024-02-15T03:01:08;33.70;;;15.93;;
3343;SDS011;1685;53.104;8.228;2024-02-15T03:03:35;39.17;;;17.73;;
3343;SDS011;1685;53.104;8.228;2024-02-15T03:06:03;44.43;;;18.30;;
3343;SDS011;1685;53.104;8.228;2024-02-15T03:08:31;40.23;;;17.70;;
3343;SDS011;1685;53.104;8.228;2024-02-15T03:10:59;46.27;;;18.40;;
3343;SDS011;1685;53.104;8.228;2024-02-15T03:13:26;46.07;;;20.43;;
3343;SDS011;1685;53.104;8.228;2024-02-15T03:15:53;47.13;;;18.73;;
3343;SDS011;1685;53.104;8.228;2024-02-15T03:18:22;38.70;;;17.50;;
3343;SDS011;1685;53.104;8.228;2024-02-15T03:20:49;39.90;;;17.93;;
3343;SDS011;1685;53.104;8.228;2024-02-15T03:23:16;38.20;;;17.13;;
3343;SDS011;1685;53.104;8.228;2024-02-15T03:25:44;38.93;;;17.40;;
3343;SDS011;1685;53.104;8.228;2024-02-15T03:28:11;39.43;;;16.83;;
3343;SDS011;1685;53.104;8.228;2024-02-15T03:30:38;34.67;;;15.87;;
3343;SDS011;1685;53.104;8.228;2024-02-15T03:33:06;37.43;;;17.77;;
3343;SDS011;1685;53.104;8.228;2024-02-15T03:35:34;40.50;;;18.30;;
3343;SDS011;1685;53.104;8.228;2024-02-15T03:38:02;42.63;;;17.70;;
3343;SDS011;1685;53.104;8.228;2024-02-15T03:40:30;41.90;;;17.50;;
3343;SDS011;1685;53.104;8.228;2024-02-15T03:42:57;35.77;;;16.63;;
3343;SDS011;1685;53.104;8.228;2024-02-15T03:45:24;32.80;;;15.17;;
3343;SDS011;1685;53.104;8.228;2024-02-15T03:47:52;33.27;;;16.43;;
3343;SDS011;1685;53.104;8.228;2024-02-15T03:50:19;41.17;;;17.13;;
3343;SDS011;1685;53.104;8.228;2024-02-15T03:52:48;31.57;;;15.43;;
3343;SDS011;1685;53.104;8.228;2024-02-15T03:55:16;39.10;;;16.53;;
3343;SDS011;1685;53.104;8.228;2024-02-15T03:57:43;33.47;;;15.93;;
3343;SDS011;1685;53.104;8.228;2024-02-15T04:00:11;39.47;;;15.97;;
3343;SDS011;1685;53.104;8.228;2024-02-15T04:02:39;36.63;;;15.20;;
3343;SDS011;1685;53.104;8.228;2024-02-15T04:05:07;34.57;;;16.70;;
3343;SDS011;1685;53.104;8.228;2024-02-15T04:07:36;28.77;;;15.67;;
3343;SDS011;1685;53.104;8.228;2024-02-15T04:10:06;40.47;;;17.20;;
3343;SDS011;1685;53.104;8.228;2024-02-15T04:12:33;35.43;;;15.20;;
3343;SDS011;1685;53.104;8.228;2024-02-15T04:15:00;33.97;;;14.53;;
3343;SDS011;1685;53.104;8.228;2024-02-15T04:17:30;33.70;;;16.30;;
3343;SDS011;1685;53.104;8.228;2024-02-15T04:20:00;36.90;;;16.00;;
3343;SDS011;1685;53.104;8.228;2024-02-15T04:22:28;46.27;;;15.63;;
3343;SDS011;1685;53.104;8.228;2024-02-15T04:24:56;38.17;;;15.73;;
3343;SDS011;1685;53.104;8.228;2024-02-15T04:27:25;31.00;;;15.60;;
3343;SDS011;1685;53.104;8.228;2024-02-15T04:29:52;38.50;;;16.97;;
3343;SDS011;1685;53.104;8.228;2024-02-15T04:32:20;36.00;;;15.83;;
3343;SDS011;1685;53.104;8.228;2024-02-15T04:34:47;28.30;;;15.53;;
3343;SDS011;1685;53.104;8.228;2024-02-15T04:37:15;33.40;;;15.40;;
3343;SDS011;1685;53.104;8.228;2024-02-15T04:39:43;32.90;;;14.87;;
3343;SDS011;1685;53.104;8.228;2024-02-15T04:42:12;28.83;;;14.97;;
3343;SDS011;1685;53.104;8.228;2024-02-15T04:44:42;29.47;;;15.40;;
3343;SDS011;1685;53.104;8.228;2024-02-15T04:47:09;30.73;;;15.20;;
3343;SDS011;1685;53.104;8.228;2024-02-15T04:49:36;33.60;;;16.27;;
3343;SDS011;1685;53.104;8.228;2024-02-15T04:52:04;31.20;;;15.90;;
3343;SDS011;1685;53.104;8.228;2024-02-15T04:54:31;36.43;;;16.07;;
3343;SDS011;1685;53.104;8.228;2024-02-15T04:56:59;34.97;;;17.90;;
3343;SDS011;1685;53.104;8.228;2024-02-15T04:59:26;32.50;;;15.83;;
3343;SDS011;1685;53.104;8.228;2024-02-15T05:01:55;37.23;;;15.70;;
3343;SDS011;1685;53.104;8.228;2024-02-15T05:04:23;28.23;;;16.10;;
3343;SDS011;1685;53.104;8.228;2024-02-15T05:06:50;46.50;;;17.53;;
3343;SDS011;1685;53.104;8.228;2024-02-15T05:09:18;37.37;;;16.90;;
3343;SDS011;1685;53.104;8.228;2024-02-15T05:11:45;39.20;;;16.63;;
3343;SDS011;1685;53.104;8.228;2024-02-15T05:14:13;36.13;;;16.60;;
3343;SDS011;1685;53.104;8.228;2024-02-15T05:16:44;33.63;;;16.30;;
3343;SDS011;1685;53.104;8.228;2024-02-15T05:19:14;35.87;;;17.90;;
3343;SDS011;1685;53.104;8.228;2024-02-15T05:21:42;39.53;;;18.50;;
3343;SDS011;1685;53.104;8.228;2024-02-15T05:24:11;41.37;;;18.60;;
3343;SDS011;1685;53.104;8.228;2024-02-15T05:26:38;35.53;;;17.23;;
3343;SDS011;1685;53.104;8.228;2024-02-15T05:29:07;36.03;;;17.73;;
3343;SDS011;1685;53.104;8.228;2024-02-15T05:31:35;42.73;;;17.33;;
3343;SDS011;1685;53.104;8.228;2024-02-15T05:34:03;45.87;;;17.53;;
3343;SDS011;1685;53.104;8.228;2024-02-15T05:36:31;42.30;;;18.90;;
3343;SDS011;1685;53.104;8.228;2024-02-15T05:38:59;41.17;;;17.40;;
3343;SDS011;1685;53.104;8.228;2024-02-15T05:41:27;44.73;;;18.60;;
3343;SDS011;1685;53.104;8.228;2024-02-15T05:43:55;44.17;;;19.43;;
3343;SDS011;1685;53.104;8.228;2024-02-15T05:46:23;46.43;;;20.50;;
3343;SDS011;1685;53.104;8.228;2024-02-15T05:48:50;45.80;;;19.03;;
3343;SDS011;1685;53.104;8.228;2024-02-15T05:51:18;40.03;;;18.93;;
3343;SDS011;1685;53.104;8.228;2024-02-15T05:53:46;47.07;;;19.23;;
3343;SDS011;1685;53.104;8.228;2024-02-15T05:56:14;37.10;;;18.20;;
3343;SDS011;1685;53.104;8.228;2024-02-15T05:58:41;48.80;;;20.10;;
3343;SDS011;1685;53.104;8.228;2024-02-15T06:01:09;49.17;;;19.63;;
3343;SDS011;1685;53.104;8.228;2024-02-15T06:03:38;48.77;;;20.27;;
3343;SDS011;1685;53.104;8.228;2024-02-15T06:06:06;51.97;;;20.63;;
3343;SDS011;1685;53.104;8.228;2024-02-15T06:08:34;46.47;;;20.00;;
3343;SDS011;1685;53.104;8.228;2024-02-15T06:11:02;46.03;;;22.63;;
3343;SDS011;1685;53.104;8.228;2024-02-15T06:13:30;46.73;;;20.50;;
3343;SDS011;1685;53.104;8.228;2024-02-15T06:15:57;57.40;;;24.23;;
3343;SDS011;1685;53.104;8.228;2024-02-15T06:18:25;54.40;;;21.10;;
3343;SDS011;1685;53.104;8.228;2024-02-15T06:20:54;48.47;;;21.40;;
3343;SDS011;1685;53.104;8.228;2024-02-15T06:23:22;53.63;;;22.30;;
3343;SDS011;1685;53.104;8.228;2024-02-15T06:25:51;52.97;;;21.53;;
3343;SDS011;1685;53.104;8.228;2024-02-15T06:28:20;45.47;;;20.37;;
3343;SDS011;1685;53.104;8.228;2024-02-15T06:31:01;56.70;;;23.23;;
3343;SDS011;1685;53.104;8.228;2024-02-15T06:33:46;58.30;;;23.70;;
3343;SDS011;1685;53.104;8.228;2024-02-15T06:36:30;52.17;;;21.17;;
3343;SDS011;1685;53.104;8.228;2024-02-15T06:39:15;53.13;;;21.67;;
3343;SDS011;1685;53.104;8.228;2024-02-15T06:42:00;60.23;;;24.47;;
3343;SDS011;1685;53.104;8.228;2024-02-15T06:44:29;57.90;;;24.03;;
3343;SDS011;1685;53.104;8.228;2024-02-15T06:46:56;54.10;;;21.57;;
3343;SDS011;1685;53.104;8.228;2024-02-15T06:49:23;51.27;;;24.53;;
3343;SDS011;1685;53.104;8.228;2024-02-15T06:51:50;52.63;;;22.80;;
3343;SDS011;1685;53.104;8.228;2024-02-15T06:54:18;59.83;;;23.90;;
3343;SDS011;1685;53.104;8.228;2024-02-15T06:56:45;44.90;;;21.97;;
3343;SDS011;1685;53.104;8.228;2024-02-15T06:59:12;52.93;;;21.73;;
3343;SDS011;1685;53.104;8.228;2024-02-15T07:01:41;62.50;;;24.33;;
3343;SDS011;1685;53.104;8.228;2024-02-15T07:04:08;52.97;;;24.33;;
3343;SDS011;1685;53.104;8.228;2024-02-15T07:06:36;53.67;;;23.00;;
3343;SDS011;1685;53.104;8.228;2024-02-15T07:09:04;52.70;;;23.30;;
3343;SDS011;1685;53.104;8.228;2024-02-15T07:11:31;54.60;;;24.10;;
3343;SDS011;1685;53.104;8.228;2024-02-15T07:13:59;62.83;;;23.97;;
3343;SDS011;1685;53.104;8.228;2024-02-15T07:16:26;64.27;;;25.30;;
3343;SDS011;1685;53.104;8.228;2024-02-15T07:18:55;52.63;;;24.77;;
3343;SDS011;1685;53.104;8.228;2024-02-15T07:21:22;62.60;;;24.73;;
3343;SDS011;1685;53.104;8.228;2024-02-15T07:23:52;65.90;;;25.23;;
3343;SDS011;1685;53.104;8.228;2024-02-15T07:26:19;62.03;;;26.30;;
3343;SDS011;1685;53.104;8.228;2024-02-15T07:28:49;62.13;;;25.20;;
3343;SDS011;1685;53.104;8.228;2024-02-15T07:31:17;63.30;;;25.23;;
3343;SDS011;1685;53.104;8.228;2024-02-15T07:33:46;62.20;;;25.13;;
3343;SDS011;1685;53.104;8.228;2024-02-15T07:36:15;52.60;;;26.70;;
3343;SDS011;1685;53.104;8.228;2024-02-15T07:38:44;52.97;;;24.77;;
3343;SDS011;1685;53.104;8.228;2024-02-15T07:41:13;58.90;;;25.97;;
3343;SDS011;1685;53.104;8.228;2024-02-15T07:43:43;56.17;;;25.37;;
3343;SDS011;1685;53.104;8.228;2024-02-15T07:46:12;62.43;;;25.47;;
3343;SDS011;1685;53.104;8.228;2024-02-15T07:48:41;80.10;;;27.97;;
3343;SDS011;1685;53.104;8.228;2024-02-15T07:51:10;60.30;;;27.43;;
3343;SDS011;1685;53.104;8.228;2024-02-15T07:53:39;54.67;;;23.23;;
3343;SDS011;1685;53.104;8.228;2024-02-15T07:56:07;55.07;;;25.87;;
3343;SDS011;1685;53.104;8.228;2024-02-15T07:58:37;57.10;;;26.37;;
3343;SDS011;1685;53.104;8.228;2024-02-15T08:01:06;55.03;;;26.13;;
3343;SDS011;1685;53.104;8.228;2024-02-15T08:03:34;61.10;;;27.83;;
3343;SDS011;1685;53.104;8.228;2024-02-15T08:06:01;63.73;;;26.43;;
3343;SDS011;1685;53.104;8.228;2024-02-15T08:08:31;61.00;;;25.90;;
3343;SDS011;1685;53.104;8.228;2024-02-15T08:11:01;64.43;;;26.30;;
3343;SDS011;1685;53.104;8.228;2024-02-15T08:13:28;74.23;;;27.77;;
3343;SDS011;1685;53.104;8.228;2024-02-15T08:15:55;59.50;;;25.60;;
3343;SDS011;1685;53.104;8.228;2024-02-15T08:18:22;60.10;;;26.20;;
3343;SDS011;1685;53.104;8.228;2024-02-15T08:20:50;54.90;;;25.83;;
3343;SDS011;1685;53.104;8.228;2024-02-15T08:23:18;51.07;;;25.63;;
3343;SDS011;1685;53.104;8.228;2024-02-15T08:25:45;63.53;;;26.00;;
3343;SDS011;1685;53.104;8.228;2024-02-15T08:28:14;63.17;;;27.40;;
3343;SDS011;1685;53.104;8.228;2024-02-15T08:30:41;58.27;;;26.57;;
3343;SDS011;1685;53.104;8.228;2024-02-15T08:33:08;56.87;;;26.33;;
3343;SDS011;1685;53.104;8.228;2024-02-15T08:35:36;57.77;;;27.90;;
3343;SDS011;1685;53.104;8.228;2024-02-15T08:38:05;55.13;;;27.97;;
3343;SDS011;1685;53.104;8.228;2024-02-15T08:40:32;61.17;;;26.20;;
3343;SDS011;1685;53.104;8.228;2024-02-15T08:43:00;56.13;;;27.13;;
3343;SDS011;1685;53.104;8.228;2024-02-15T08:45:29;61.47;;;25.30;;
3343;SDS011;1685;53.104;8.228;2024-02-15T08:47:56;51.87;;;25.80;;
3343;SDS011;1685;53.104;8.228;2024-02-15T08:50:23;62.27;;;25.53;;
3343;SDS011;1685;53.104;8.228;2024-02-15T08:52:50;64.40;;;28.60;;
3343;SDS011;1685;53.104;8.228;2024-02-15T08:55:17;51.93;;;25.70;;
3343;SDS011;1685;53.104;8.228;2024-02-15T08:57:49;54.43;;;26.63;;
3343;SDS011;1685;53.104;8.228;2024-02-15T09:00:16;62.70;;;25.13;;
3343;SDS011;1685;53.104;8.228;2024-02-15T09:02:44;67.23;;;28.77;;
3343;SDS011;1685;53.104;8.228;2024-02-15T09:05:12;56.00;;;26.53;;
3343;SDS011;1685;53.104;8.228;2024-02-15T09:07:39;52.97;;;26.87;;
3343;SDS011;1685;53.104;8.228;2024-02-15T09:10:08;62.10;;;26.47;;
3343;SDS011;1685;53.104;8.228;2024-02-15T09:12:36;68.50;;;29.37;;
3343;SDS011;1685;53.104;8.228;2024-02-15T09:15:05;57.80;;;27.07;;
3343;SDS011;1685;53.104;8.228;2024-02-15T09:17:33;66.43;;;29.17;;
3343;SDS011;1685;53.104;8.228;2024-02-15T09:20:06;74.53;;;30.30;;
3343;SDS011;1685;53.104;8.228;2024-02-15T09:22:39;57.33;;;28.03;;
3343;SDS011;1685;53.104;8.228;2024-02-15T09:25:07;67.00;;;29.47;;
3343;SDS011;1685;53.104;8.228;2024-02-15T09:27:34;67.43;;;29.23;;
3343;SDS011;1685;53.104;8.228;2024-02-15T09:30:03;73.07;;;30.33;;
3343;SDS011;1685;53.104;8.228;2024-02-15T09:32:32;57.93;;;29.50;;
3343;SDS011;1685;53.104;8.228;2024-02-15T09:35:01;68.07;;;31.83;;
3343;SDS011;1685;53.104;8.228;2024-02-15T09:37:29;62.07;;;29.87;;
3343;SDS011;1685;53.104;8.228;2024-02-15T09:39:58;77.80;;;33.00;;
3343;SDS011;1685;53.104;8.228;2024-02-15T09:42:30;69.53;;;32.97;;
3343;SDS011;1685;53.104;8.228;2024-02-15T09:44:59;76.10;;;31.77;;
3343;SDS011;1685;53.104;8.228;2024-02-15T09:47:27;76.60;;;33.97;;
3343;SDS011;1685;53.104;8.228;2024-02-15T09:50:00;69.43;;;30.20;;
3343;SDS011;1685;53.104;8.228;2024-02-15T09:52:27;72.70;;;32.57;;
3343;SDS011;1685;53.104;8.228;2024-02-15T09:54:57;69.43;;;30.43;;
3343;SDS011;1685;53.104;8.228;2024-02-15T09:57:26;69.67;;;31.37;;
3343;SDS011;1685;53.104;8.228;2024-02-15T09:59:54;81.70;;;35.90;;
3343;SDS011;1685;53.104;8.228;2024-02-15T10:02:21;85.30;;;32.90;;
3343;SDS011;1685;53.104;8.228;2024-02-15T10:04:48;72.87;;;31.83;;
3343;SDS011;1685;53.104;8.228;2024-02-15T10:07:16;77.23;;;34.80;;
3343;SDS011;1685;53.104;8.228;2024-02-15T10:09:45;58.93;;;29.33;;
3343;SDS011;1685;53.104;8.228;2024-02-15T10:12:12;73.37;;;31.57;;
3343;SDS011;1685;53.104;8.228;2024-02-15T10:14:39;74.00;;;33.70;;
3343;SDS011;1685;53.104;8.228;2024-02-15T10:17:17;58.73;;;30.07;;
3343;SDS011;1685;53.104;8.228;2024-02-15T10:19:45;66.80;;;32.70;;
3343;SDS011;1685;53.104;8.228;2024-02-15T10:22:29;81.83;;;33.93;;
3343;SDS011;1685;53.104;8.228;2024-02-15T10:25:11;64.90;;;31.63;;
3343;SDS011;1685;53.104;8.228;2024-02-15T10:27:38;67.03;;;31.50;;
3343;SDS011;1685;53.104;8.228;2024-02-15T10:30:16;63.87;;;32.63;;
3343;SDS011;1685;53.104;8.228;2024-02-15T10:32:48;70.40;;;32.80;;
3343;SDS011;1685;53.104;8.228;2024-02-15T10:35:18;76.10;;;31.23;;
3343;SDS011;1685;53.104;8.228;2024-02-15T10:37:46;82.63;;;36.60;;
3343;SDS011;1685;53.104;8.228;2024-02-15T10:40:18;66.23;;;32.27;;
3343;SDS011;1685;53.104;8.228;2024-02-15T10:42:46;73.13;;;31.63;;
3343;SDS011;1685;53.104;8.228;2024-02-15T10:46:09;52.27;;;30.87;;
3343;SDS011;1685;53.104;8.228;2024-02-15T10:49:18;66.13;;;32.00;;
3343;SDS011;1685;53.104;8.228;2024-02-15T10:55:01;66.93;;;31.77;;
3343;SDS011;1685;53.104;8.228;2024-02-15T10:58:06;63.77;;;30.80;;
3343;SDS011;1685;53.104;8.228;2024-02-15T11:00:34;65.00;;;32.70;;
3343;SDS011;1685;53.104;8.228;2024-02-15T11:03:08;63.43;;;32.20;;
3343;SDS011;1685;53.104;8.228;2024-02-15T11:05:56;51.60;;;29.77;;
3343;SDS011;1685;53.104;8.228;2024-02-15T11:08:26;53.43;;;28.47;;
3343;SDS011;1685;53.104;8.228;2024-02-15T11:10:54;60.30;;;28.37;;
3343;SDS011;1685;53.104;8.228;2024-02-15T11:13:25;49.10;;;27.70;;
3343;SDS011;1685;53.104;8.228;2024-02-15T11:15:52;52.50;;;29.73;;
3343;SDS011;1685;53.104;8.228;2024-02-15T11:21:08;49.73;;;28.90;;
3343;SDS011;1685;53.104;8.228;2024-02-15T11:23:35;42.20;;;26.63;;
3343;SDS011;1685;53.104;8.228;2024-02-15T11:26:02;52.50;;;28.90;;
3343;SDS011;1685;53.104;8.228;2024-02-15T11:28:38;52.43;;;29.20;;
3343;SDS011;1685;53.104;8.228;2024-02-15T11:31:08;48.80;;;28.57;;
3343;SDS011;1685;53.104;8.228;2024-02-15T11:33:37;46.00;;;27.07;;
3343;SDS011;1685;53.104;8.228;2024-02-15T11:36:05;42.20;;;25.33;;
3343;SDS011;1685;53.104;8.228;2024-02-15T11:38:33;53.93;;;27.47;;
3343;SDS011;1685;53.104;8.228;2024-02-15T11:41:03;46.23;;;27.20;;
3343;SDS011;1685;53.104;8.228;2024-02-15T11:43:52;47.37;;;26.87;;
3343;SDS011;1685;53.104;8.228;2024-02-15T11:46:23;46.03;;;27.27;;
3343;SDS011;1685;53.104;8.228;2024-02-15T11:48:54;42.73;;;25.43;;
3343;SDS011;1685;53.104;8.228;2024-02-15T11:51:30;48.73;;;26.57;;
3343;SDS011;1685;53.104;8.228;2024-02-15T11:54:02;46.17;;;26.50;;
3343;SDS011;1685;53.104;8.228;2024-02-15T11:56:32;41.77;;;26.87;;
3343;SDS011;1685;53.104;8.228;2024-02-15T11:59:04;47.93;;;27.23;;
3343;SDS011;1685;53.104;8.228;2024-02-15T12:01:32;44.63;;;27.03;;
3343;SDS011;1685;53.104;8.228;2024-02-15T12:04:18;45.10;;;26.10;;
3343;SDS011;1685;53.104;8.228;2024-02-15T12:07:02;35.40;;;23.03;;
3343;SDS011;1685;53.104;8.228;2024-02-15T12:09:47;36.00;;;24.57;;
3343;SDS011;1685;53.104;8.228;2024-02-15T12:12:50;39.63;;;25.13;;
3343;SDS011;1685;53.104;8.228;2024-02-15T12:15:36;38.47;;;24.93;;
3343;SDS011;1685;53.104;8.228;2024-02-15T12:18:20;43.20;;;23.97;;
3343;SDS011;1685;53.104;8.228;2024-02-15T12:21:08;33.60;;;22.97;;
3343;SDS011;1685;53.104;8.228;2024-02-15T12:23:37;33.53;;;24.17;;
3343;SDS011;1685;53.104;8.228;2024-02-15T12:26:06;31.13;;;22.60;;
3343;SDS011;1685;53.104;8.228;2024-02-15T12:28:34;39.33;;;24.23;;
3343;SDS011;1685;53.104;8.228;2024-02-15T12:31:03;36.17;;;22.20;;
3343;SDS011;1685;53.104;8.228;2024-02-15T12:33:32;33.03;;;23.10;;
3343;SDS011;1685;53.104;8.228;2024-02-15T12:36:06;30.20;;;21.73;;
3343;SDS011;1685;53.104;8.228;2024-02-15T12:38:33;34.43;;;20.53;;
3343;SDS011;1685;53.104;8.228;2024-02-15T12:41:02;28.00;;;20.93;;
3343;SDS011;1685;53.104;8.228;2024-02-15T12:43:30;30.37;;;21.80;;
3343;SDS011;1685;53.104;8.228;2024-02-15T12:45:58;24.27;;;19.43;;
3343;SDS011;1685;53.104;8.228;2024-02-15T12:48:28;29.00;;;19.90;;
3343;SDS011;1685;53.104;8.228;2024-02-15T12:50:54;31.97;;;18.67;;
3343;SDS011;1685;53.104;8.228;2024-02-15T12:53:22;25.90;;;18.63;;
3343;SDS011;1685;53.104;8.228;2024-02-15T12:55:52;25.17;;;17.53;;
3343;SDS011;1685;53.104;8.228;2024-02-15T12:58:21;22.70;;;18.17;;
3343;SDS011;1685;53.104;8.228;2024-02-15T13:00:49;20.97;;;16.77;;
3343;SDS011;1685;53.104;8.228;2024-02-15T13:03:17;24.77;;;17.50;;
3343;SDS011;1685;53.104;8.228;2024-02-15T13:05:46;23.10;;;17.60;;
3343;SDS011;1685;53.104;8.228;2024-02-15T13:08:13;23.70;;;16.30;;
3343;SDS011;1685;53.104;8.228;2024-02-15T13:10:43;19.10;;;15.97;;
3343;SDS011;1685;53.104;8.228;2024-02-15T13:13:10;22.30;;;14.30;;
3343;SDS011;1685;53.104;8.228;2024-02-15T13:15:39;21.90;;;14.20;;
3343;SDS011;1685;53.104;8.228;2024-02-15T13:18:06;16.90;;;14.07;;
3343;SDS011;1685;53.104;8.228;2024-02-15T13:20:36;15.60;;;13.10;;
3343;SDS011;1685;53.104;8.228;2024-02-15T13:23:05;13.47;;;12.07;;
3343;SDS011;1685;53.104;8.228;2024-02-15T13:25:40;13.83;;;11.97;;
3343;SDS011;1685;53.104;8.228;2024-02-15T13:28:09;13.27;;;11.87;;
3343;SDS011;1685;53.104;8.228;2024-02-15T13:30:38;13.30;;;11.80;;
3343;SDS011;1685;53.104;8.228;2024-02-15T13:33:06;18.20;;;11.97;;
3343;SDS011;1685;53.104;8.228;2024-02-15T13:35:33;12.50;;;11.10;;
3343;SDS011;1685;53.104;8.228;2024-02-15T13:38:01;12.23;;;11.10;;
3343;SDS011;1685;53.104;8.228;2024-02-15T13:40:30;13.63;;;10.10;;
3343;SDS011;1685;53.104;8.228;2024-02-15T13:42:57;11.90;;;10.80;;
3343;SDS011;1685;53.104;8.228;2024-02-15T13:45:26;12.17;;;10.27;;
3343;SDS011;1685;53.104;8.228;2024-02-15T13:47:57;18.30;;;10.83;;
3343;SDS011;1685;53.104;8.228;2024-02-15T13:50:27;12.67;;;10.20;;
3343;SDS011;1685;53.104;8.228;2024-02-15T13:52:55;12.17;;;10.63;;
3343;SDS011;1685;53.104;8.228;2024-02-15T13:55:22;14.23;;;11.60;;
3343;SDS011;1685;53.104;8.228;2024-02-15T13:57:52;15.73;;;13.00;;
3343;SDS011;1685;53.104;8.228;2024-02-15T14:00:21;14.80;;;12.17;;
3343;SDS011;1685;53.104;8.228;2024-02-15T14:02:55;14.73;;;11.97;;
3343;SDS011;1685;53.104;8.228;2024-02-15T14:05:23;15.13;;;13.17;;
3343;SDS011;1685;53.104;8.228;2024-02-15T14:07:54;15.03;;;12.57;;
3343;SDS011;1685;53.104;8.228;2024-02-15T14:10:22;18.20;;;13.30;;
3343;SDS011;1685;53.104;8.228;2024-02-15T14:12:50;15.20;;;12.60;;
3343;SDS011;1685;53.104;8.228;2024-02-15T14:15:19;15.13;;;13.03;;
3343;SDS011;1685;53.104;8.228;2024-02-15T14:17:46;17.00;;;12.80;;
3343;SDS011;1685;53.104;8.228;2024-02-15T14:20:14;15.50;;;13.10;;
3343;SDS011;1685;53.104;8.228;2024-02-15T14:22:41;16.37;;;12.83;;
3343;SDS011;1685;53.104;8.228;2024-02-15T14:25:09;17.30;;;12.77;;
3343;SDS011;1685;53.104;8.228;2024-02-15T14:27:37;20.43;;;13.77;;
3343;SDS011;1685;53.104;8.228;2024-02-15T14:30:05;16.73;;;15.00;;
3343;SDS011;1685;53.104;8.228;2024-02-15T14:32:51;18.87;;;13.20;;
3343;SDS011;1685;53.104;8.228;2024-02-15T14:35:29;15.30;;;11.90;;
3343;SDS011;1685;53.104;8.228;2024-02-15T14:37:57;17.23;;;14.43;;
3343;SDS011;1685;53.104;8.228;2024-02-15T14:40:27;14.90;;;12.03;;
3343;SDS011;1685;53.104;8.228;2024-02-15T14:42:54;17.00;;;12.60;;
3343;SDS011;1685;53.104;8.228;2024-02-15T14:45:21;13.30;;;11.90;;
3343;SDS011;1685;53.104;8.228;2024-02-15T14:47:49;17.50;;;11.83;;
3343;SDS011;1685;53.104;8.228;2024-02-15T14:50:18;15.27;;;12.60;;
3343;SDS011;1685;53.104;8.228;2024-02-15T14:52:45;14.30;;;11.93;;
3343;SDS011;1685;53.104;8.228;2024-02-15T14:55:13;13.53;;;12.23;;
3343;SDS011;1685;53.104;8.228;2024-02-15T14:57:40;13.97;;;12.47;;
3343;SDS011;1685;53.104;8.228;2024-02-15T15:00:08;13.93;;;12.30;;
3343;SDS011;1685;53.104;8.228;2024-02-15T15:02:39;12.43;;;11.20;;
3343;SDS011;1685;53.104;8.228;2024-02-15T15:05:07;17.97;;;13.73;;
3343;SDS011;1685;53.104;8.228;2024-02-15T15:07:53;15.53;;;13.10;;